Time;durP1;ratioP1;P1;durP2;ratioP2;P2;SDS_P1;SDS_P2;PMS_P1;PMS_P2;Temp;Humidity;BMP_temperature;BMP_pressure;BME280_temperature;BME280_humidity;BME280_pressure;Samples;Min_cycle;Max_cycle;Signal;HPM_P1;HPM_P2
2023/06/05 00:01:49;;;;;;;11.23;6.60;;;12.00;99.90;;;;;;5063080;28;20205;-80
2023/06/05 00:04:18;;;;;;;7.90;7.03;;;11.90;99.90;;;;;;5070714;28;20205;-77
2023/06/05 00:06:45;;;;;;;7.93;6.93;;;11.90;99.90;;;;;;5053773;28;20308;-78
2023/06/05 00:09:13;;;;;;;7.87;6.77;;;11.90;99.90;;;;;;5053565;28;20599;-79
2023/06/05 00:11:40;;;;;;;10.57;7.13;;;11.90;99.90;;;;;;5053611;28;20198;-80
2023/06/05 00:20:53;;;;;;;9.93;6.83;;;11.80;99.90;;;;;;5052944;28;20204;-78
2023/06/05 00:23:19;;;;;;;9.57;6.90;;;11.80;99.90;;;;;;5051934;28;20484;-77
2023/06/05 00:25:46;;;;;;;9.07;7.93;;;11.80;99.90;;;;;;5053636;28;20584;-78
2023/06/05 00:28:13;;;;;;;9.17;6.97;;;11.80;99.90;;;;;;5060856;28;20289;-77
2023/06/05 00:30:40;;;;;;;7.90;7.00;;;11.80;99.90;;;;;;5058694;28;20593;-76
2023/06/05 00:33:07;;;;;;;9.07;6.77;;;11.80;99.90;;;;;;5066177;28;20194;-77
2023/06/05 00:35:34;;;;;;;8.33;7.43;;;11.80;99.90;;;;;;5050395;28;20727;-78
2023/06/05 00:38:02;;;;;;;7.60;6.87;;;11.80;99.90;;;;;;5052436;28;20238;-78
2023/06/05 00:40:29;;;;;;;9.13;7.00;;;11.70;99.90;;;;;;5074195;28;20254;-78
2023/06/05 00:42:56;;;;;;;8.93;6.80;;;11.70;99.90;;;;;;5065220;28;20620;-78
2023/06/05 00:45:23;;;;;;;7.60;6.90;;;11.70;99.90;;;;;;5054023;28;20261;-79
2023/06/05 00:47:50;;;;;;;10.10;6.93;;;11.70;99.90;;;;;;5063465;28;20306;-79
2023/06/05 00:50:21;;;;;;;8.17;7.00;;;11.70;99.90;;;;;;5073900;28;20286;-77
2023/06/05 00:52:49;;;;;;;10.30;7.33;;;11.70;99.90;;;;;;5071104;28;20951;-78
2023/06/05 00:55:18;;;;;;;8.00;6.03;;;11.70;99.90;;;;;;5066560;28;20292;-79
2023/06/05 00:57:46;;;;;;;11.73;7.40;;;11.70;99.90;;;;;;5054530;28;20477;-78
2023/06/05 01:00:13;;;;;;;7.47;6.27;;;11.70;99.90;;;;;;5054624;28;20213;-79
2023/06/05 01:02:40;;;;;;;10.13;6.87;;;11.70;99.90;;;;;;5053593;28;20191;-79
2023/06/05 01:05:08;;;;;;;8.87;6.80;;;11.60;99.90;;;;;;5054429;28;20220;-79
2023/06/05 01:07:37;;;;;;;9.40;6.83;;;11.60;99.90;;;;;;5054239;28;20209;-80
2023/06/05 01:10:06;;;;;;;11.17;8.10;;;11.60;99.90;;;;;;5053271;28;20247;-77
2023/06/05 01:12:42;;;;;;;8.73;6.77;;;11.60;99.90;;;;;;5036307;28;20241;-79
2023/06/05 01:15:09;;;;;;;8.33;6.13;;;11.60;99.90;;;;;;5073773;28;20285;-79
2023/06/05 01:17:37;;;;;;;8.60;6.47;;;11.60;99.90;;;;;;5073297;28;20569;-79
2023/06/05 01:20:07;;;;;;;8.37;6.50;;;11.60;99.90;;;;;;5073578;28;20341;-79
2023/06/05 01:22:37;;;;;;;9.50;6.43;;;11.60;99.90;;;;;;5076819;28;20434;-80
2023/06/05 01:25:07;;;;;;;7.17;6.30;;;11.60;99.90;;;;;;5093384;28;20192;-79
2023/06/05 01:27:39;;;;;;;8.80;6.43;;;11.50;99.90;;;;;;5093467;28;20217;-81
2023/06/05 01:30:15;;;;;;;8.27;7.10;;;11.50;99.90;;;;;;5060443;28;20226;-77
2023/06/05 01:32:47;;;;;;;6.53;5.77;;;11.50;99.90;;;;;;5054274;28;20271;-78
2023/06/05 01:35:17;;;;;;;7.73;6.47;;;11.50;99.90;;;;;;5069743;28;20296;-79
2023/06/05 01:37:48;;;;;;;7.40;6.57;;;11.50;99.90;;;;;;5053215;28;20498;-80
2023/06/05 01:40:18;;;;;;;8.77;6.50;;;11.50;99.90;;;;;;5053551;28;20190;-78
2023/06/05 01:42:46;;;;;;;6.80;6.10;;;11.50;99.90;;;;;;5052908;28;20190;-78
2023/06/05 01:45:15;;;;;;;8.53;7.10;;;11.50;99.90;;;;;;5052370;28;20234;-79
2023/06/05 01:47:43;;;;;;;8.93;6.60;;;11.40;99.90;;;;;;5053232;28;20680;-79
2023/06/05 01:50:12;;;;;;;9.83;7.17;;;11.40;99.90;;;;;;5051841;28;20201;-77
2023/06/05 01:52:41;;;;;;;7.83;6.53;;;11.40;99.90;;;;;;5051937;28;20271;-78
2023/06/05 01:55:14;;;;;;;8.70;5.77;;;11.40;99.90;;;;;;5052939;28;20300;-78
2023/06/05 01:57:43;;;;;;;7.30;6.60;;;11.30;99.90;;;;;;5052974;28;20212;-78
2023/06/05 02:00:13;;;;;;;8.37;6.27;;;11.30;99.90;;;;;;5052521;28;20222;-79
2023/06/05 02:02:41;;;;;;;6.43;5.83;;;11.30;99.90;;;;;;5053042;28;20289;-78
2023/06/05 02:05:09;;;;;;;8.23;5.87;;;11.30;99.90;;;;;;5052580;28;20220;-78
2023/06/05 02:07:38;;;;;;;7.30;6.40;;;11.30;99.90;;;;;;5052538;28;20225;-79
2023/06/05 02:10:05;;;;;;;7.70;6.40;;;11.20;99.90;;;;;;5052589;28;20210;-79
2023/06/05 02:12:32;;;;;;;7.87;5.97;;;11.20;99.90;;;;;;5052161;28;20617;-78
2023/06/05 02:15:01;;;;;;;7.40;6.70;;;11.20;99.90;;;;;;5052511;28;20213;-79
2023/06/05 02:17:28;;;;;;;9.80;6.87;;;11.20;99.90;;;;;;5053052;28;20285;-80
2023/06/05 02:19:55;;;;;;;8.40;6.43;;;11.20;99.90;;;;;;5052871;28;20221;-79
2023/06/05 02:22:23;;;;;;;8.20;6.40;;;11.20;99.90;;;;;;5053123;28;20633;-79
2023/06/05 02:24:51;;;;;;;8.70;6.80;;;11.20;99.90;;;;;;5052274;28;20696;-79
2023/06/05 02:27:19;;;;;;;7.33;6.07;;;11.20;99.90;;;;;;5068194;28;20336;-79
2023/06/05 02:29:46;;;;;;;10.53;6.93;;;11.20;99.90;;;;;;5056774;28;20225;-78
2023/06/05 02:32:14;;;;;;;6.37;5.67;;;11.20;99.90;;;;;;5052594;28;20198;-78
2023/06/05 02:34:41;;;;;;;6.33;5.73;;;11.10;99.90;;;;;;5052077;28;20201;-78
2023/06/05 02:37:11;;;;;;;8.47;6.30;;;11.20;99.90;;;;;;5053741;28;20200;-78
2023/06/05 02:39:38;;;;;;;6.60;6.00;;;11.10;99.90;;;;;;5053356;28;20629;-79
2023/06/05 02:42:08;;;;;;;8.20;6.20;;;11.10;99.90;;;;;;5051612;28;20202;-79
2023/06/05 02:44:35;;;;;;;6.90;6.17;;;11.10;99.90;;;;;;5051869;28;20285;-80
2023/06/05 02:47:01;;;;;;;6.57;5.87;;;11.10;99.90;;;;;;5051986;28;20214;-80
2023/06/05 02:49:30;;;;;;;8.37;7.43;;;11.10;99.90;;;;;;5052352;28;20194;-78
2023/06/05 02:51:57;;;;;;;7.83;6.20;;;11.10;99.90;;;;;;5052049;28;20200;-78
2023/06/05 02:54:24;;;;;;;8.20;6.40;;;11.10;99.90;;;;;;5052177;28;20292;-78
2023/06/05 02:56:51;;;;;;;6.97;5.80;;;11.20;99.90;;;;;;5051492;28;20205;-79
2023/06/05 02:59:18;;;;;;;7.77;6.23;;;11.20;99.90;;;;;;5051839;28;20208;-79
2023/06/05 03:01:47;;;;;;;8.73;6.57;;;11.20;99.90;;;;;;5051365;28;20201;-78
2023/06/05 03:04:14;;;;;;;9.10;6.33;;;11.20;99.90;;;;;;5052037;28;20202;-80
2023/06/05 03:06:43;;;;;;;6.97;6.27;;;11.20;99.90;;;;;;5051862;28;20312;-78
2023/06/05 03:09:10;;;;;;;6.70;5.97;;;11.30;99.90;;;;;;5050883;28;20209;-79
2023/06/05 03:11:37;;;;;;;6.80;6.20;;;11.30;99.90;;;;;;5051243;28;20273;-78
2023/06/05 03:14:04;;;;;;;7.47;5.97;;;11.30;99.90;;;;;;5051344;28;20202;-79
2023/06/05 03:16:37;;;;;;;8.37;6.43;;;11.20;99.90;;;;;;5050591;28;20205;-79
2023/06/05 03:19:04;;;;;;;9.50;6.53;;;11.20;99.90;;;;;;5052255;28;20201;-79
2023/06/05 03:21:31;;;;;;;6.37;5.50;;;11.30;99.90;;;;;;5051962;28;20521;-79
2023/06/05 03:23:59;;;;;;;6.30;5.70;;;11.30;99.90;;;;;;5067198;28;20292;-79
2023/06/05 03:26:26;;;;;;;6.47;5.83;;;11.30;99.90;;;;;;5067456;28;20567;-79
2023/06/05 03:28:53;;;;;;;10.17;6.23;;;11.30;99.90;;;;;;5051723;28;20221;-79
2023/06/05 03:31:20;;;;;;;8.90;6.63;;;11.40;99.90;;;;;;5050210;28;20194;-80
2023/06/05 03:33:47;;;;;;;7.23;5.97;;;11.40;99.90;;;;;;5050933;28;20206;-79
2023/06/05 03:36:17;;;;;;;7.83;6.37;;;11.30;99.90;;;;;;5051290;28;20205;-79
2023/06/05 03:38:43;;;;;;;9.17;6.77;;;11.40;99.90;;;;;;5051673;28;20198;-78
2023/06/05 03:41:12;;;;;;;6.20;5.50;;;11.40;99.90;;;;;;5051698;28;20259;-79
2023/06/05 03:43:39;;;;;;;9.90;7.03;;;11.40;99.90;;;;;;5052378;28;20551;-79
2023/06/05 03:46:07;;;;;;;7.27;6.10;;;11.40;99.90;;;;;;5051719;28;20261;-80
2023/06/05 03:48:34;;;;;;;7.17;5.93;;;11.40;99.90;;;;;;5051407;28;20529;-79
2023/06/05 03:51:00;;;;;;;7.73;5.77;;;11.40;99.90;;;;;;5051566;28;20672;-79
2023/06/05 03:53:29;;;;;;;7.23;6.27;;;11.40;99.90;;;;;;5051586;28;20500;-79
2023/06/05 03:55:56;;;;;;;7.23;6.17;;;11.50;99.90;;;;;;5050525;28;20217;-79
2023/06/05 03:58:26;;;;;;;7.67;6.13;;;11.50;99.90;;;;;;5050295;28;20221;-79
2023/06/05 04:00:54;;;;;;;8.57;5.40;;;11.50;99.90;;;;;;5051119;28;20275;-78
2023/06/05 04:03:21;;;;;;;6.37;5.77;;;11.50;99.90;;;;;;5051485;28;20198;-79
2023/06/05 04:05:48;;;;;;;7.70;6.30;;;11.60;99.90;;;;;;5051013;28;20271;-80
2023/06/05 04:08:15;;;;;;;6.50;5.80;;;11.70;99.90;;;;;;5051621;28;20241;-78
2023/06/05 04:10:42;;;;;;;6.30;5.63;;;11.70;99.90;;;;;;5051539;28;20210;-80
2023/06/05 04:13:09;;;;;;;6.90;5.67;;;11.70;99.90;;;;;;5051068;28;20624;-80
2023/06/05 04:15:37;;;;;;;6.90;6.20;;;11.80;99.90;;;;;;5055335;28;20190;-79
2023/06/05 04:18:05;;;;;;;6.47;5.63;;;11.80;99.90;;;;;;5055321;28;20194;-80
2023/06/05 04:20:32;;;;;;;6.60;5.20;;;11.80;99.90;;;;;;5068788;28;20224;-78
2023/06/05 04:22:59;;;;;;;6.70;5.70;;;11.90;99.90;;;;;;5074746;28;20201;-79
2023/06/05 04:25:28;;;;;;;7.40;5.70;;;11.90;99.90;;;;;;5074898;28;20198;-79
2023/06/05 04:27:57;;;;;;;7.43;5.80;;;12.00;99.90;;;;;;5069621;28;20250;-78
2023/06/05 04:30:24;;;;;;;7.03;5.50;;;12.00;99.90;;;;;;5066348;28;20640;-81
2023/06/05 04:32:54;;;;;;;6.30;5.10;;;12.10;99.90;;;;;;5072915;28;20548;-81
2023/06/05 04:35:21;;;;;;;6.37;5.77;;;12.20;99.90;;;;;;5067279;28;20209;-82
2023/06/05 04:37:48;;;;;;;5.57;4.97;;;12.20;99.90;;;;;;5075368;28;20199;-80
2023/06/05 04:40:16;;;;;;;6.63;5.20;;;12.20;99.90;;;;;;5074258;28;20699;-79
2023/06/05 04:42:43;;;;;;;6.80;5.10;;;12.20;99.90;;;;;;5057515;28;20303;-79
2023/06/05 04:45:10;;;;;;;7.73;5.03;;;12.30;99.90;;;;;;5054994;28;20321;-79
2023/06/05 04:47:38;;;;;;;6.57;5.70;;;12.40;99.90;;;;;;5054040;28;20231;-79
2023/06/05 04:50:07;;;;;;;5.83;4.50;;;12.40;99.90;;;;;;5054982;28;20516;-80
2023/06/05 04:52:36;;;;;;;5.30;4.80;;;12.50;99.90;;;;;;5063804;28;20506;-77
2023/06/05 04:55:03;;;;;;;6.67;5.03;;;12.50;99.90;;;;;;5054025;28;20213;-79
2023/06/05 04:57:31;;;;;;;5.20;4.50;;;12.60;99.90;;;;;;5054582;28;20216;-81
2023/06/05 04:59:58;;;;;;;6.70;4.73;;;12.60;99.90;;;;;;5054246;28;20665;-78
2023/06/05 05:02:26;;;;;;;5.90;4.30;;;12.70;99.90;;;;;;5053788;28;20583;-79
2023/06/05 05:04:53;;;;;;;4.33;3.93;;;12.70;99.90;;;;;;5056554;28;20206;-79
2023/06/05 05:07:22;;;;;;;6.13;4.00;;;12.80;99.90;;;;;;5062340;28;20233;-80
2023/06/05 05:09:49;;;;;;;5.63;3.93;;;12.80;99.90;;;;;;5054092;28;20749;-79
2023/06/05 05:12:16;;;;;;;4.70;3.93;;;12.90;99.90;;;;;;5054052;28;20210;-78
2023/06/05 05:14:44;;;;;;;5.67;4.13;;;13.00;99.90;;;;;;5053364;28;20692;-77
2023/06/05 05:17:11;;;;;;;6.10;4.17;;;13.10;99.90;;;;;;5054369;28;20214;-80
2023/06/05 05:19:40;;;;;;;5.27;3.83;;;13.10;99.90;;;;;;5054710;28;20602;-79
2023/06/05 05:22:07;;;;;;;4.87;4.10;;;13.10;99.90;;;;;;5055923;28;20214;-79
2023/06/05 05:24:35;;;;;;;5.03;3.37;;;13.20;99.90;;;;;;5074338;28;20200;-79
2023/06/05 05:27:02;;;;;;;5.50;4.00;;;13.20;99.90;;;;;;5057986;28;20289;-79
2023/06/05 05:29:31;;;;;;;5.40;4.50;;;13.30;99.90;;;;;;5053006;28;20850;-79
2023/06/05 05:31:58;;;;;;;5.90;4.00;;;13.30;99.90;;;;;;5053822;28;20213;-77
2023/06/05 05:34:24;;;;;;;3.97;3.50;;;13.40;99.90;;;;;;5053391;28;20305;-79
2023/06/05 05:36:51;;;;;;;5.57;4.23;;;13.50;99.90;;;;;;5052930;28;20209;-77
2023/06/05 05:39:19;;;;;;;5.53;3.37;;;13.60;99.90;;;;;;5053464;28;20197;-79
2023/06/05 05:41:47;;;;;;;3.83;3.33;;;13.60;99.90;;;;;;5053383;28;20202;-78
2023/06/05 05:44:14;;;;;;;4.30;3.27;;;13.70;99.90;;;;;;5052518;28;20673;-75
2023/06/05 05:46:41;;;;;;;5.20;3.35;;;13.80;99.90;;;;;;5053106;28;20654;-77
2023/06/05 05:49:08;;;;;;;3.60;3.23;;;13.90;99.90;;;;;;5053246;28;20712;-79
2023/06/05 05:51:35;;;;;;;4.37;2.93;;;14.00;99.90;;;;;;5052491;28;20288;-78
2023/06/05 05:54:02;;;;;;;5.53;2.92;;;14.20;99.90;;;;;;5053974;28;20208;-78
2023/06/05 05:56:29;;;;;;;3.20;2.70;;;14.40;99.90;;;;;;5053072;28;20285;-79
2023/06/05 05:58:57;;;;;;;4.30;3.28;;;14.50;99.90;;;;;;5052101;28;20201;-78
2023/06/05 06:01:24;;;;;;;3.95;3.22;;;14.60;99.90;;;;;;5053004;28;20210;-78
2023/06/05 06:03:51;;;;;;;5.90;3.40;;;14.70;99.90;;;;;;5053010;28;20202;-79
2023/06/05 06:06:18;;;;;;;5.10;3.20;;;14.70;99.90;;;;;;5052738;28;20280;-77
2023/06/05 06:08:45;;;;;;;4.35;3.47;;;14.70;99.90;;;;;;5052518;28;20222;-78
2023/06/05 06:11:12;;;;;;;3.88;3.08;;;14.70;99.90;;;;;;5052979;28;20218;-80
2023/06/05 06:13:39;;;;;;;4.38;3.45;;;14.70;99.90;;;;;;5052338;28;20206;-79
2023/06/05 06:16:07;;;;;;;4.38;3.20;;;14.70;99.90;;;;;;5052453;28;20213;-81
2023/06/05 06:18:34;;;;;;;5.30;3.95;;;14.60;99.90;;;;;;5053012;28;20384;-79
2023/06/05 06:21:01;;;;;;;4.80;3.70;;;14.60;99.90;;;;;;5052743;28;20634;-79
2023/06/05 06:23:29;;;;;;;6.07;3.88;;;14.70;99.90;;;;;;5052443;28;20213;-80
2023/06/05 06:25:56;;;;;;;4.55;3.38;;;14.60;99.90;;;;;;5052055;28;20198;-79
2023/06/05 06:28:23;;;;;;;4.38;3.63;;;14.50;99.90;;;;;;5052664;28;20699;-79
2023/06/05 06:30:50;;;;;;;4.72;3.50;;;14.50;99.90;;;;;;5068533;28;20201;-79
2023/06/05 06:33:19;;;;;;;5.03;3.95;;;14.60;99.90;;;;;;5071218;28;20204;-78
2023/06/05 06:35:46;;;;;;;5.40;3.72;;;14.60;99.90;;;;;;5069591;28;20212;-79
2023/06/05 06:38:13;;;;;;;4.15;3.50;;;14.60;99.90;;;;;;5066011;28;20213;-81
2023/06/05 06:40:40;;;;;;;7.22;4.18;;;14.60;99.90;;;;;;5057742;28;20293;-79
2023/06/05 06:43:06;;;;;;;3.97;3.65;;;14.70;99.90;;;;;;5059938;28;20201;-81
2023/06/05 06:45:33;;;;;;;4.63;3.75;;;14.70;99.90;;;;;;5070890;28;20665;-80
2023/06/05 06:48:00;;;;;;;4.63;4.00;;;14.70;99.90;;;;;;5060396;28;20717;-79
2023/06/05 06:50:28;;;;;;;5.32;3.58;;;14.80;99.90;;;;;;5059351;28;20285;-79
2023/06/05 06:52:55;;;;;;;4.60;3.92;;;14.90;99.90;;;;;;5054111;28;20198;-77
2023/06/05 06:55:22;;;;;;;4.15;3.75;;;14.80;99.90;;;;;;5067053;28;20208;-80
2023/06/05 06:57:50;;;;;;;5.00;3.58;;;14.80;99.90;;;;;;5052389;28;20194;-78
2023/06/05 07:00:17;;;;;;;4.22;3.25;;;14.90;99.90;;;;;;5071646;28;20498;-80
2023/06/05 07:02:44;;;;;;;4.97;3.58;;;15.00;99.90;;;;;;5056084;28;20571;-79
2023/06/05 07:05:11;;;;;;;4.75;3.45;;;15.00;99.90;;;;;;5052503;28;20201;-77
2023/06/05 07:11:12;;;;;;;5.25;3.47;;;15.20;99.90;;;;;;5068443;28;20620;-80
2023/06/05 07:13:39;;;;;;;3.83;2.97;;;15.20;99.90;;;;;;5072550;28;20689;-78
2023/06/05 07:16:07;;;;;;;4.28;3.58;;;15.30;99.90;;;;;;5066394;28;20201;-79
2023/06/05 07:18:34;;;;;;;4.90;3.30;;;15.40;99.90;;;;;;5054615;28;20204;-78
2023/06/05 07:21:00;;;;;;;3.72;3.33;;;15.50;99.90;;;;;;5068706;28;20204;-78
2023/06/05 07:23:28;;;;;;;4.82;3.05;;;15.50;99.90;;;;;;5067642;28;20211;-78
2023/06/05 07:25:56;;;;;;;4.20;2.95;;;15.60;99.90;;;;;;5061254;28;20201;-78
2023/06/05 07:28:25;;;;;;;3.92;2.90;;;15.70;99.90;;;;;;5066359;28;20215;-79
2023/06/05 07:30:52;;;;;;;3.15;2.88;;;15.90;99.90;;;;;;5054530;28;20220;-78
2023/06/05 07:33:20;;;;;;;4.15;3.00;;;16.20;99.90;;;;;;5055865;28;20289;-78
2023/06/05 07:35:48;;;;;;;4.72;3.15;;;16.40;99.90;;;;;;5053699;28;20205;-78
2023/06/05 07:38:15;;;;;;;4.15;3.30;;;16.60;99.90;;;;;;5054332;28;20578;-77
2023/06/05 07:40:42;;;;;;;3.47;2.90;;;16.80;99.90;;;;;;5062033;28;20199;-77
2023/06/05 07:43:12;;;;;;;3.22;2.78;;;17.10;99.90;;;;;;5056177;28;20297;-79
2023/06/05 07:45:42;;;;;;;3.40;2.90;;;17.10;99.90;;;;;;5059031;28;20229;-80
2023/06/05 07:48:09;;;;;;;3.95;2.85;;;17.00;99.90;;;;;;5053590;28;20638;-78
2023/06/05 07:50:35;;;;;;;3.75;2.80;;;17.20;99.90;;;;;;5057446;28;20280;-78
2023/06/05 07:53:04;;;;;;;3.05;2.75;;;17.40;99.90;;;;;;5067827;28;20205;-77
2023/06/05 07:55:31;;;;;;;4.85;3.35;;;17.50;99.90;;;;;;5075833;28;20288;-77
2023/06/05 07:57:59;;;;;;;3.88;2.90;;;17.60;99.90;;;;;;5068444;28;20231;-77
2023/06/05 08:00:28;;;;;;;5.00;3.60;;;17.60;99.90;;;;;;5072510;28;20280;-78
2023/06/05 08:02:57;;;;;;;3.70;3.40;;;17.90;99.90;;;;;;5075885;28;20669;-77
2023/06/05 08:05:24;;;;;;;3.80;2.85;;;18.00;99.90;;;;;;5066260;28;20563;-79
2023/06/05 08:07:51;;;;;;;3.90;3.47;;;18.00;99.90;;;;;;5073763;28;20625;-78
2023/06/05 08:10:18;;;;;;;2.88;2.67;;;18.20;99.90;;;;;;5076402;28;20193;-77
2023/06/05 08:12:44;;;;;;;3.50;3.17;;;18.40;99.90;;;;;;5076815;28;20208;-78
2023/06/05 08:15:11;;;;;;;3.50;3.05;;;18.30;99.90;;;;;;5075617;28;20307;-79
2023/06/05 08:17:38;;;;;;;3.22;2.92;;;18.20;99.90;;;;;;5074461;28;20277;-79
2023/06/05 08:20:10;;;;;;;3.75;3.22;;;18.30;99.90;;;;;;5056645;28;20292;-79
2023/06/05 08:22:39;;;;;;;3.45;3.15;;;18.70;99.90;;;;;;5063464;28;20189;-76
2023/06/05 08:25:07;;;;;;;3.13;2.83;;;19.00;99.90;;;;;;5065281;28;20212;-80
2023/06/05 08:27:35;;;;;;;3.92;3.08;;;19.10;99.90;;;;;;5069125;28;20206;-77
2023/06/05 08:30:01;;;;;;;5.35;3.67;;;19.50;99.90;;;;;;5074672;28;20228;-79
2023/06/05 08:32:28;;;;;;;3.25;2.95;;;19.70;99.90;;;;;;5069853;28;20494;-79
2023/06/05 08:34:55;;;;;;;2.97;2.67;;;20.20;99.90;;;;;;5059452;28;20609;-80
2023/06/05 08:37:23;;;;;;;3.47;3.17;;;20.80;99.90;;;;;;5077243;28;20239;-81
2023/06/05 08:39:50;;;;;;;6.25;3.38;;;21.20;99.90;;;;;;5068721;28;20292;-77
2023/06/05 08:42:20;;;;;;;3.67;3.28;;;21.10;99.90;;;;;;5061350;28;20507;-78
2023/06/05 08:44:48;;;;;;;4.70;2.97;;;21.10;99.90;;;;;;5074622;28;20322;-77
2023/06/05 08:47:16;;;;;;;3.40;3.10;;;21.20;99.90;;;;;;5077026;28;20219;-78
2023/06/05 08:49:43;;;;;;;3.10;2.78;;;21.10;99.90;;;;;;5063572;28;20218;-78
2023/06/05 08:52:13;;;;;;;4.30;3.92;;;21.30;99.90;;;;;;5056809;28;20265;-78
2023/06/05 08:54:42;;;;;;;4.35;3.97;;;21.40;99.90;;;;;;5074641;28;20231;-77
2023/06/05 08:57:10;;;;;;;3.38;3.08;;;21.30;99.90;;;;;;5066711;28;20236;-77
2023/06/05 08:59:38;;;;;;;4.55;3.25;;;21.40;99.90;;;;;;5074131;28;20232;-79
2023/06/05 09:02:05;;;;;;;5.18;3.58;;;21.70;99.90;;;;;;5072533;28;20536;-77
2023/06/05 09:04:32;;;;;;;2.72;2.47;;;21.80;99.90;;;;;;5074039;28;20265;-76
2023/06/05 09:06:59;;;;;;;3.85;3.35;;;22.00;99.90;;;;;;5054748;28;20532;-78
2023/06/05 09:09:27;;;;;;;4.32;3.55;;;22.20;99.90;;;;;;5054161;28;20218;-77
2023/06/05 09:12:06;;;;;;;3.90;3.50;;;22.10;99.90;;;;;;5054317;28;20197;-78
2023/06/05 09:14:34;;;;;;;3.97;3.17;;;22.20;99.90;;;;;;5053522;28;20594;-79
2023/06/05 09:17:02;;;;;;;3.53;3.17;;;22.30;99.90;;;;;;5054622;28;20589;-77
2023/06/05 09:19:37;;;;;;;3.58;3.28;;;22.20;99.90;;;;;;5054904;28;20197;-79
2023/06/05 09:22:05;;;;;;;3.53;3.22;;;21.90;99.90;;;;;;5053710;28;20216;-78
2023/06/05 09:24:32;;;;;;;5.15;2.90;;;21.70;99.90;;;;;;5053813;28;20202;-80
2023/06/05 09:27:00;;;;;;;4.15;3.13;;;21.50;99.90;;;;;;5054131;28;20288;-78
2023/06/05 09:29:30;;;;;;;4.57;3.35;;;21.80;99.90;;;;;;5053466;28;20232;-79
2023/06/05 09:31:59;;;;;;;6.78;3.60;;;22.10;99.90;;;;;;5058651;28;20209;-77
2023/06/05 09:34:28;;;;;;;3.95;3.13;;;22.00;99.90;;;;;;5074124;28;20293;-81
2023/06/05 09:36:57;;;;;;;4.25;2.65;;;22.20;99.90;;;;;;5070435;28;20216;-80
2023/06/05 09:39:26;;;;;;;3.50;2.90;;;22.10;99.90;;;;;;5073698;28;20194;-77
2023/06/05 09:41:53;;;;;;;3.28;2.97;;;22.30;99.90;;;;;;5067849;28;20659;-78
2023/06/05 09:44:21;;;;;;;3.47;2.95;;;22.20;99.90;;;;;;5070481;28;20264;-78
2023/06/05 09:46:57;;;;;;;4.03;3.08;;;22.00;99.90;;;;;;5071698;28;20285;-77
2023/06/05 09:49:27;;;;;;;5.53;3.25;;;21.90;99.90;;;;;;5053228;28;20218;-78
2023/06/05 09:51:56;;;;;;;4.00;3.50;;;21.90;99.90;;;;;;5056171;28;20218;-78
2023/06/05 09:54:26;;;;;;;5.00;3.08;;;22.00;99.90;;;;;;5057815;28;20193;-80
2023/06/05 09:56:58;;;;;;;5.95;2.88;;;22.20;99.90;;;;;;5066752;28;20233;-82
2023/06/05 09:59:31;;;;;;;4.82;3.33;;;22.10;99.90;;;;;;5073421;28;20274;-79
2023/06/05 10:02:04;;;;;;;3.53;3.22;;;21.90;99.90;;;;;;5069291;28;20828;-82
2023/06/05 10:04:34;;;;;;;3.67;3.17;;;22.10;99.90;;;;;;5064367;28;20263;-81
2023/06/05 10:07:02;;;;;;;3.80;3.50;;;22.10;99.90;;;;;;5065101;28;20199;-80
2023/06/05 10:09:31;;;;;;;3.45;3.15;;;21.90;99.90;;;;;;5078568;28;20208;-79
2023/06/05 10:11:59;;;;;;;3.92;3.53;;;21.90;99.90;;;;;;5064931;28;20194;-78
2023/06/05 10:14:26;;;;;;;3.88;3.45;;;21.90;99.90;;;;;;5072349;28;20200;-78
2023/06/05 10:16:54;;;;;;;4.35;3.22;;;22.10;99.90;;;;;;5065612;28;20206;-79
2023/06/05 10:19:24;;;;;;;4.25;2.90;;;22.10;99.90;;;;;;5052605;28;20201;-79
2023/06/05 10:21:52;;;;;;;4.05;3.22;;;21.90;99.90;;;;;;5062804;28;20197;-79
2023/06/05 10:24:23;;;;;;;6.00;3.45;;;22.30;99.90;;;;;;5046376;28;20229;-80
2023/06/05 10:27:17;;;;;;;4.35;2.75;;;22.50;99.90;;;;;;5062156;28;20181;-81
2023/06/05 10:30:09;;;;;;;5.18;3.25;;;22.70;99.90;;;;;;5071790;28;20225;-79
2023/06/05 10:32:45;;;;;;;6.05;3.63;;;23.00;99.90;;;;;;5019779;28;20198;-78
2023/06/05 10:35:23;;;;;;;4.65;3.63;;;23.20;99.90;;;;;;5053237;28;20207;-80
2023/06/05 10:38:04;;;;;;;6.70;3.70;;;22.90;99.90;;;;;;5052867;28;20251;-77
2023/06/05 10:40:32;;;;;;;4.10;3.42;;;23.00;99.90;;;;;;5051929;28;20645;-78
2023/06/05 10:43:26;;;;;;;4.45;3.97;;;22.90;99.90;;;;;;5052334;28;20539;-77
2023/06/05 10:45:54;;;;;;;5.13;4.47;;;22.80;99.90;;;;;;5051746;28;20314;-78
2023/06/05 10:48:21;;;;;;;4.78;3.90;;;22.70;99.90;;;;;;5052585;28;20202;-78
2023/06/05 10:50:49;;;;;;;6.40;3.60;;;22.70;99.90;;;;;;5052640;28;20791;-78
2023/06/05 10:53:46;;;;;;;4.10;3.70;;;22.80;99.90;;;;;;5052001;28;20208;-79
2023/06/05 10:56:56;;;;;;;3.40;3.10;;;22.70;99.90;;;;;;5052346;28;20216;-79
2023/06/05 10:59:24;;;;;;;4.03;3.58;;;22.70;99.90;;;;;;5052565;28;20190;-81
2023/06/05 11:02:23;;;;;;;5.40;3.63;;;22.80;99.90;;;;;;5051955;28;20706;-81
2023/06/05 11:05:08;;;;;;;4.38;3.97;;;22.90;99.90;;;;;;5052458;28;20206;-82
2023/06/05 11:07:37;;;;;;;4.60;3.90;;;22.80;99.90;;;;;;5052631;28;20271;-80
2023/06/05 11:10:17;;;;;;;5.03;3.53;;;22.60;99.90;;;;;;5052656;28;20317;-81
2023/06/05 11:13:03;;;;;;;6.18;3.90;;;22.60;99.90;;;;;;5052246;28;20271;-81
2023/06/05 11:15:42;;;;;;;5.68;3.65;;;22.30;99.90;;;;;;5052338;28;20742;-81
2023/06/05 11:18:32;;;;;;;5.43;4.38;;;22.30;99.90;;;;;;5052404;28;20193;-81
2023/06/05 11:21:00;;;;;;;7.53;3.90;;;22.30;99.90;;;;;;5055809;28;20277;-77
2023/06/05 11:23:29;;;;;;;4.57;4.13;;;22.20;99.90;;;;;;5070598;28;20204;-81
2023/06/05 11:26:33;;;;;;;5.40;4.22;;;22.40;99.90;;;;;;5072355;28;20203;-80
2023/06/05 11:29:00;;;;;;;4.95;4.18;;;22.60;99.90;;;;;;5055419;28;20225;-80
2023/06/05 11:31:32;;;;;;;4.30;3.90;;;22.50;99.90;;;;;;5051749;28;20213;-78
2023/06/05 11:33:59;;;;;;;7.05;4.93;;;22.40;99.90;;;;;;5051879;28;20209;-79
2023/06/05 11:36:26;;;;;;;5.45;4.22;;;22.50;99.90;;;;;;5051487;28;20300;-81
2023/06/05 11:38:57;;;;;;;6.25;4.40;;;22.40;99.90;;;;;;5051641;28;20225;-79
2023/06/05 11:41:25;;;;;;;5.72;4.38;;;22.50;99.90;;;;;;5050719;28;20263;-79
2023/06/05 11:43:52;;;;;;;6.03;4.53;;;22.10;99.90;;;;;;5049871;28;20226;-80
2023/06/05 11:46:19;;;;;;;5.65;4.68;;;22.30;99.90;;;;;;5050017;28;20186;-78
2023/06/05 11:48:46;;;;;;;6.47;4.47;;;22.40;99.90;;;;;;5050399;28;20798;-79
2023/06/05 11:51:13;;;;;;;4.25;3.63;;;22.70;99.90;;;;;;5050253;28;20552;-79
2023/06/05 11:53:47;;;;;;;6.45;3.92;;;22.80;99.90;;;;;;5050985;28;20210;-80
2023/06/05 11:56:17;;;;;;;5.05;4.55;;;22.80;99.90;;;;;;5051983;28;20243;-79
2023/06/05 11:58:45;;;;;;;5.57;4.28;;;23.00;99.90;;;;;;5051556;28;20201;-78
2023/06/05 12:01:17;;;;;;;4.63;4.20;;;23.10;99.90;;;;;;5052273;28;20297;-79
2023/06/05 12:03:44;;;;;;;4.45;3.67;;;23.10;99.90;;;;;;5051536;28;20291;-79
2023/06/05 12:06:13;;;;;;;6.35;4.38;;;23.20;99.90;;;;;;5052066;28;20632;-78
2023/06/05 12:08:40;;;;;;;5.55;3.95;;;23.30;99.90;;;;;;5056020;28;20597;-78
2023/06/05 12:11:22;;;;;;;4.72;3.70;;;23.20;99.90;;;;;;5070678;28;20283;-78
2023/06/05 12:13:50;;;;;;;9.00;5.30;;;23.30;99.90;;;;;;5071472;28;20198;-78
2023/06/05 12:16:35;;;;;;;6.82;5.00;;;23.20;99.90;;;;;;5066776;28;20206;-77
2023/06/05 12:19:03;;;;;;;7.82;4.70;;;22.80;99.90;;;;;;5051414;28;20208;-79
2023/06/05 12:21:30;;;;;;;5.30;4.78;;;22.50;99.90;;;;;;5051813;28;20288;-79
2023/06/05 12:24:04;;;;;;;5.57;4.88;;;22.50;99.90;;;;;;5051108;28;20206;-80
2023/06/05 12:26:51;;;;;;;4.07;3.70;;;22.40;99.90;;;;;;5051057;28;20215;-80
2023/06/05 12:29:18;;;;;;;4.22;3.72;;;22.40;99.90;;;;;;5071657;28;20303;-81
2023/06/05 12:31:45;;;;;;;5.55;4.53;;;22.50;99.90;;;;;;5071506;28;20212;-79
2023/06/05 12:34:12;;;;;;;4.90;4.07;;;22.50;99.90;;;;;;5069562;28;20201;-81
2023/06/05 12:36:42;;;;;;;7.18;4.38;;;22.50;99.90;;;;;;5055083;28;20194;-81
2023/06/05 12:39:12;;;;;;;5.28;4.68;;;22.30;99.90;;;;;;5054076;28;20225;-81
2023/06/05 12:41:41;;;;;;;4.53;3.83;;;22.20;99.90;;;;;;5055057;28;20654;-83
2023/06/05 12:44:08;;;;;;;5.40;4.18;;;22.20;99.90;;;;;;5072681;28;20611;-80
2023/06/05 12:46:36;;;;;;;4.60;4.20;;;22.10;99.90;;;;;;5069928;28;20212;-82
2023/06/05 12:49:05;;;;;;;6.45;4.20;;;22.30;99.90;;;;;;5074882;28;20204;-82
2023/06/05 12:51:32;;;;;;;5.68;4.03;;;22.40;99.90;;;;;;5074521;28;20267;-80
2023/06/05 12:53:59;;;;;;;6.00;4.50;;;22.40;99.90;;;;;;5070307;28;20206;-79
2023/06/05 12:56:26;;;;;;;5.13;4.00;;;22.50;99.90;;;;;;5055080;28;20194;-82
2023/06/05 12:58:55;;;;;;;4.30;3.63;;;22.70;99.90;;;;;;5070305;28;20661;-80
2023/06/05 13:01:23;;;;;;;5.93;3.90;;;22.90;99.90;;;;;;5061699;28;20606;-81
2023/06/05 13:03:50;;;;;;;4.25;3.83;;;22.70;99.90;;;;;;5060731;28;20196;-79
2023/06/05 13:06:17;;;;;;;7.00;3.58;;;22.60;99.90;;;;;;5074596;28;20197;-80